Les résultats vous sont offerts par

Télécharger en pdf

 

Trail de la Côte Châtillonnaise - Barbe bleue 8 km

31/03/2019 - Massingy

124 classés sur 128 inscrits

 

 

Ordre Scratch Nom Prénom Dossard Temps Catégorie Club
1 22  GIBIER  VIRGINIE 386 00:50:41 SE  ALLIANCE FORM LE CLUB
2 32  OLLIVIER  SANDRA 452 00:53:43 M1  SEMUR ATHLE
3 33  PLOFFOIN  LUCRECE 418 00:54:05 SE  
4 36  DEMASSEY  JULIE 372 00:54:34 ES  
5 40  COMPAROT  CHARLINE 453 00:55:18 SE  
6 44  MAZUREK  CHRISTELLE 405 00:57:39 M1  
7 47  FOURNET  ANNE 380 00:58:53 SE  
8 51  RATTON  CATHERINE 423 01:00:06 M1  
9 53  PHILIPS  CAMILLE 417 01:00:29 JU  ECRA CHATILLONNAIS
10 61  MATAGNE  VERONIQUE 403 01:01:51 M2  
11 64  VERSTRAETE  AURORE 434 01:02:32 SE  A.S. TONNERROISE OMNISPORT SECTION ATHLETISME
12 67  POINSOT  EMILIE 419 01:02:42 SE  TROYES OMNISPORTS
13 69  LOPEZ  MELINDA 393 01:03:12 SE  
14 70  OLLIN  STEPHANIE 413 01:03:25 M1  
15 73  ROUGET  AURELIE 465 01:05:28 SE  
16 74  MAIRE  MICHELE 398 01:06:10 M3  FOULEE CHATILLONNAISE
17 77  VARIOT  ISABELLE 432 01:06:50 M1  
18 78  DAUTEL  MARIE 370 01:07:49 SE  
19 79  DESTIPS  ANNE MARIE 467 01:07:54 M1  
20 80  MAURY  VALERIE 404 01:07:59 M1  ATHLETIC RIBOCORTIN SAVINIEN
21 81  PERCEBOIS  MARIE CHRISTINE 415 01:08:00 M2  ATHLETIC RIBOCORTIN SAVINIEN
22 82  MALGRAS  NADEGE 399 01:08:03 M1  
23 83  REMY  AXELLE 424 01:08:10 SE  
24 84  BOURRICARD  PAULINE 475 01:08:14 SE  
25 85  HUGEROT  AMANDINE 463 01:08:38 SE  
26 87  CUENOT  LAURA 477 01:09:30 SE  AJPC
27 89  BIERNE  VERONIQUE 358 01:09:38 M1  
28 91  PONCET  LUCRECE 448 01:10:51 M1  
29 92  VAN DEN BROECKE  ORIANE 431 01:11:13 SE  
30 93  CHANET  ELODIE 476 01:11:15 SE  
31 95  LEDOUX  GABRIELLE 446 01:12:47 M3  
32 97  MOINE  MANON 407 01:12:53 JU  
33 98  SAINT ETIENNE  ELODIE 460 01:13:15 SE  
34 99  GENTY  JUSTINE 384 01:13:16 SE  
35 100  VERSLYPE  DELPHINE 433 01:13:19 SE  
36 101  FAUCHEREAU  ANNABELLE 378 01:15:40 SE  LES RUNNERS DU MOULIN
37 102  RONDEAU  CELINE 427 01:16:00 SE  
38 103  PASTORET  ISALINE 469 01:16:30 SE  
39 105  ADAM  ORLANE 352 01:16:46 SE  
40 106  VIARD  SARAH 436 01:17:22 M1  ATHLETIC RIBOCORTIN SAVINIEN
41 107  DESHOUWES  SYLVIE 443 01:17:24 M2  CABB
42 108  MOINE  FLORENCE 406 01:17:59 M1  
43 109  ALBERT  AMANDINE 353 01:18:36 SE  
44 110  ADELINE  JULIE 454 01:18:59 SE  
45 111  THIERRY  CAMILLE 440 01:21:10 SE  
46 112  LE METAYER  EMILIE 445 01:21:35 SE  AJPC
47 113  FOURNIER  AURELIE 381 01:21:57 SE  
48 114  BUFFET  NATHALIE 363 01:22:37 SE  
49 116  GUEUGNON  VIRGINIE 388 01:23:51 M1  
50 117  MARIN  LOUISE 401 01:23:51 SE  
51 118  LO  SYLVIE 392 01:24:17 SE  
52 119  ROMANO  KARINE 426 01:24:20 M1  
53 120  DO CAMPO  ELISABETE 376 01:24:38 M1  
54 121  DE ALMEIDA  ISABEL 447 01:27:00 M2  
55 122  SANTILLY  MAGALI 428 01:31:49 M1  JOGGING CLUB DRYAT
56 123  ANTIL  KARINE 355 01:31:50 M1  
57 124  RICHARD GRAS  FABIENNE 425 01:35:22 M2  FOULEE CHATILLONNAISE

 

 

Les résultats vous sont offerts par

Télécharger en pdf

 

 

 

 

 

 

 

 

 

 

 

 

 

 

 

 

 

 

 

 

 

 

 

chronometrage,chronométrage, sportif, chrono, course, course à pied, trail, trails, couse nature, puce, U-DAG, loto